sensor_id;sensor_type;location;lat;lon;timestamp;pressure;altitude;pressure_sealevel;temperature;humidity
26839;BME280;40088;51.214;6.786;2022-10-31T00:08:51;101783.38;;;19.60;63.87
26839;BME280;40088;51.214;6.786;2022-10-31T00:18:54;101795.28;;;19.61;63.87
26839;BME280;40088;51.214;6.786;2022-10-31T00:28:55;101789.75;;;19.61;63.74
26839;BME280;40088;51.214;6.786;2022-10-31T00:38:55;101798.03;;;19.61;63.82
26839;BME280;40088;51.214;6.786;2022-10-31T00:48:55;101798.25;;;19.59;63.60
26839;BME280;40088;51.214;6.786;2022-10-31T00:58:56;101811.16;;;19.59;63.79
26839;BME280;40088;51.214;6.786;2022-10-31T01:08:56;101807.53;;;19.58;63.68
26839;BME280;40088;51.214;6.786;2022-10-31T01:18:56;101806.66;;;19.58;63.90
26839;BME280;40088;51.214;6.786;2022-10-31T01:28:59;101804.75;;;19.58;63.66
26839;BME280;40088;51.214;6.786;2022-10-31T01:39:03;101789.22;;;19.57;63.59
26839;BME280;40088;51.214;6.786;2022-10-31T01:49:08;101783.91;;;19.56;63.73
26839;BME280;40088;51.214;6.786;2022-10-31T01:59:11;101763.69;;;19.55;63.76
26839;BME280;40088;51.214;6.786;2022-10-31T02:09:13;101772.84;;;19.56;63.44
26839;BME280;40088;51.214;6.786;2022-10-31T02:19:19;101771.97;;;19.55;63.63
26839;BME280;40088;51.214;6.786;2022-10-31T02:40:18;101777.69;;;19.53;63.55
26839;BME280;40088;51.214;6.786;2022-10-31T02:50:30;101797.03;;;19.53;63.60
26839;BME280;40088;51.214;6.786;2022-10-31T03:00:39;101771.28;;;19.53;63.11
26839;BME280;40088;51.214;6.786;2022-10-31T03:10:47;101776.81;;;19.53;63.34
26839;BME280;40088;51.214;6.786;2022-10-31T03:20:55;101779.78;;;19.51;63.22
26839;BME280;40088;51.214;6.786;2022-10-31T03:30:58;101775.09;;;19.52;63.50
26839;BME280;40088;51.214;6.786;2022-10-31T03:41:01;101770.63;;;19.51;63.29
26839;BME280;40088;51.214;6.786;2022-10-31T04:01:15;101772.34;;;19.52;63.02
26839;BME280;40088;51.214;6.786;2022-10-31T04:11:19;101764.06;;;19.52;63.41
26839;BME280;40088;51.214;6.786;2022-10-31T04:21:26;101769.59;;;19.52;62.94
26839;BME280;40088;51.214;6.786;2022-10-31T04:31:27;101763.19;;;19.51;63.17
26839;BME280;40088;51.214;6.786;2022-10-31T04:41:27;101757.66;;;19.51;63.20
26839;BME280;40088;51.214;6.786;2022-10-31T04:51:28;101747.47;;;19.52;63.03
26839;BME280;40088;51.214;6.786;2022-10-31T05:01:28;101756.63;;;19.52;63.12
26839;BME280;40088;51.214;6.786;2022-10-31T05:11:28;101736.41;;;19.52;62.93
26839;BME280;40088;51.214;6.786;2022-10-31T05:21:28;101718.97;;;19.51;63.01
26839;BME280;40088;51.214;6.786;2022-10-31T05:31:29;101735.56;;;19.51;63.11
26839;BME280;40088;51.214;6.786;2022-10-31T05:41:29;101724.50;;;19.51;62.89
26839;BME280;40088;51.214;6.786;2022-10-31T05:51:29;101725.34;;;19.52;62.73
26839;BME280;40088;51.214;6.786;2022-10-31T06:01:29;101723.44;;;19.52;62.97
26839;BME280;40088;51.214;6.786;2022-10-31T06:11:30;101723.63;;;19.51;62.51
26839;BME280;40088;51.214;6.786;2022-10-31T06:21:30;101718.97;;;19.51;62.79
26839;BME280;40088;51.214;6.786;2022-10-31T06:31:30;101720.88;;;19.51;63.02
26839;BME280;40088;51.214;6.786;2022-10-31T06:41:30;101718.97;;;19.51;62.91
26839;BME280;40088;51.214;6.786;2022-10-31T06:51:31;101726.41;;;19.51;62.91
26839;BME280;40088;51.214;6.786;2022-10-31T07:01:31;101725.34;;;19.52;62.71
26839;BME280;40088;51.214;6.786;2022-10-31T07:11:31;101732.78;;;19.51;62.43
26839;BME280;40088;51.214;6.786;2022-10-31T07:21:32;101734.69;;;19.51;62.63
26839;BME280;40088;51.214;6.786;2022-10-31T07:31:32;101735.56;;;19.51;62.42
26839;BME280;40088;51.214;6.786;2022-10-31T07:41:32;101741.94;;;19.52;62.38
26839;BME280;40088;51.214;6.786;2022-10-31T07:51:33;101750.44;;;19.50;62.45
26839;BME280;40088;51.214;6.786;2022-10-31T08:01:33;101755.75;;;19.52;62.57
26839;BME280;40088;51.214;6.786;2022-10-31T08:11:33;101737.47;;;19.51;62.76
26839;BME280;40088;51.214;6.786;2022-10-31T08:21:33;101739.16;;;19.52;62.50
26839;BME280;40088;51.214;6.786;2022-10-31T08:31:34;101735.56;;;19.51;62.45
26839;BME280;40088;51.214;6.786;2022-10-31T08:41:34;101728.31;;;19.50;62.25
26839;BME280;40088;51.214;6.786;2022-10-31T08:51:35;101720.69;;;19.52;62.33
26839;BME280;40088;51.214;6.786;2022-10-31T09:01:35;101703.22;;;19.52;62.32
26839;BME280;40088;51.214;6.786;2022-10-31T09:11:35;101697.69;;;19.52;62.33
26839;BME280;40088;51.214;6.786;2022-10-31T09:21:37;101683.88;;;19.52;62.46
26839;BME280;40088;51.214;6.786;2022-10-31T09:31:37;101680.25;;;19.51;62.44
26839;BME280;40088;51.214;6.786;2022-10-31T09:52:13;101645.19;;;19.52;62.51
26839;BME280;40088;51.214;6.786;2022-10-31T10:02:37;101647.94;;;19.52;62.45
26839;BME280;40088;51.214;6.786;2022-10-31T10:23:29;101606.28;;;19.53;62.62
26839;BME280;40088;51.214;6.786;2022-10-31T10:33:40;101597.97;;;19.53;62.60
26839;BME280;40088;51.214;6.786;2022-10-31T10:43:42;101580.53;;;19.53;62.25
26839;BME280;40088;51.214;6.786;2022-10-31T11:04:32;101556.34;;;19.55;62.62
26839;BME280;40088;51.214;6.786;2022-10-31T11:14:37;101537.00;;;19.55;62.50
26839;BME280;40088;51.214;6.786;2022-10-31T11:24:42;101525.94;;;19.55;62.56
26839;BME280;40088;51.214;6.786;2022-10-31T11:34:43;101524.88;;;19.56;62.40
26839;BME280;40088;51.214;6.786;2022-10-31T11:44:45;101511.06;;;19.56;62.63
26839;BME280;40088;51.214;6.786;2022-10-31T11:55:35;101472.34;;;19.56;62.74
26839;BME280;40088;51.214;6.786;2022-10-31T12:05:25;101457.47;;;19.57;62.86
26839;BME280;40088;51.214;6.786;2022-10-31T12:15:31;101446.41;;;19.57;62.62
26839;BME280;40088;51.214;6.786;2022-10-31T12:25:50;101419.63;;;19.58;62.98
26839;BME280;40088;51.214;6.786;2022-10-31T12:46:02;101394.59;;;19.59;62.78
26839;BME280;40088;51.214;6.786;2022-10-31T12:56:11;101365.19;;;19.58;62.88
26839;BME280;40088;51.214;6.786;2022-10-31T13:06:19;101320.94;;;19.58;63.08
26839;BME280;40088;51.214;6.786;2022-10-31T13:16:25;101301.59;;;19.58;62.95
26839;BME280;40088;51.214;6.786;2022-10-31T13:26:37;101276.72;;;19.58;63.17
26839;BME280;40088;51.214;6.786;2022-10-31T13:47:28;101272.94;;;19.59;62.97
26839;BME280;40088;51.214;6.786;2022-10-31T13:57:37;101245.31;;;19.59;63.37
26839;BME280;40088;51.214;6.786;2022-10-31T14:07:42;101226.94;;;19.58;63.02
26839;BME280;40088;51.214;6.786;2022-10-31T14:17:51;101198.31;;;19.59;62.99
26839;BME280;40088;51.214;6.786;2022-10-31T14:27:52;101183.44;;;19.60;63.32
26839;BME280;40088;51.214;6.786;2022-10-31T14:38:05;101165.13;;;19.59;63.17
26839;BME280;40088;51.214;6.786;2022-10-31T14:48:20;101144.88;;;19.59;63.30
26839;BME280;40088;51.214;6.786;2022-10-31T14:58:31;101131.75;;;19.61;63.28
26839;BME280;40088;51.214;6.786;2022-10-31T15:08:34;101119.84;;;19.60;63.10
26839;BME280;40088;51.214;6.786;2022-10-31T15:18:37;101132.59;;;19.61;63.24
26839;BME280;40088;51.214;6.786;2022-10-31T15:28:39;101104.09;;;19.61;63.32
26839;BME280;40088;51.214;6.786;2022-10-31T15:38:40;101096.66;;;19.61;63.45
26839;BME280;40088;51.214;6.786;2022-10-31T15:48:44;101087.50;;;19.61;63.66
26839;BME280;40088;51.214;6.786;2022-10-31T15:58:48;101064.56;;;19.60;63.09
26839;BME280;40088;51.214;6.786;2022-10-31T16:08:50;101063.50;;;19.61;63.05
26839;BME280;40088;51.214;6.786;2022-10-31T16:18:52;101060.94;;;19.60;63.20
26839;BME280;40088;51.214;6.786;2022-10-31T16:28:57;101051.56;;;19.61;63.36
26839;BME280;40088;51.214;6.786;2022-10-31T16:38:58;101048.81;;;19.61;63.70
26839;BME280;40088;51.214;6.786;2022-10-31T16:48:58;101042.44;;;19.60;63.21
26839;BME280;40088;51.214;6.786;2022-10-31T16:59:01;101046.06;;;19.61;63.42
26839;BME280;40088;51.214;6.786;2022-10-31T17:09:02;101043.28;;;19.61;63.33
26839;BME280;40088;51.214;6.786;2022-10-31T17:19:03;101032.22;;;19.61;63.13
26839;BME280;40088;51.214;6.786;2022-10-31T17:29:03;101035.00;;;19.61;63.34
26839;BME280;40088;51.214;6.786;2022-10-31T17:39:04;101044.13;;;19.61;63.04
26839;BME280;40088;51.214;6.786;2022-10-31T17:49:06;101043.28;;;19.61;63.19
26839;BME280;40088;51.214;6.786;2022-10-31T17:59:08;101040.53;;;19.61;63.16
26839;BME280;40088;51.214;6.786;2022-10-31T18:09:08;101038.59;;;19.61;63.13
26839;BME280;40088;51.214;6.786;2022-10-31T18:19:13;101028.63;;;19.60;63.29
26839;BME280;40088;51.214;6.786;2022-10-31T18:29:15;101035.84;;;19.61;62.89
26839;BME280;40088;51.214;6.786;2022-10-31T18:39:15;101029.47;;;19.61;63.03
26839;BME280;40088;51.214;6.786;2022-10-31T18:49:16;101019.47;;;19.60;63.22
26839;BME280;40088;51.214;6.786;2022-10-31T18:59:21;100999.28;;;19.59;63.21
26839;BME280;40088;51.214;6.786;2022-10-31T19:09:22;101001.13;;;19.59;62.94
26839;BME280;40088;51.214;6.786;2022-10-31T19:19:23;100985.44;;;19.59;62.70
26839;BME280;40088;51.214;6.786;2022-10-31T19:29:23;100972.63;;;19.58;63.11
26839;BME280;40088;51.214;6.786;2022-10-31T19:39:23;100979.91;;;19.59;62.89
26839;BME280;40088;51.214;6.786;2022-10-31T19:49:24;100960.72;;;19.58;62.83
26839;BME280;40088;51.214;6.786;2022-10-31T19:59:24;100951.38;;;19.59;62.69
26839;BME280;40088;51.214;6.786;2022-10-31T20:09:25;100948.59;;;19.59;62.87
26839;BME280;40088;51.214;6.786;2022-10-31T20:19:25;100938.47;;;19.59;62.83
26839;BME280;40088;51.214;6.786;2022-10-31T20:29:25;100932.00;;;19.59;62.38
26839;BME280;40088;51.214;6.786;2022-10-31T20:39:26;100923.72;;;19.59;62.50
26839;BME280;40088;51.214;6.786;2022-10-31T20:49:26;100908.06;;;19.59;62.61
26839;BME280;40088;51.214;6.786;2022-10-31T20:59:26;100890.56;;;19.59;62.76
26839;BME280;40088;51.214;6.786;2022-10-31T21:09:26;100892.31;;;19.60;62.37
26839;BME280;40088;51.214;6.786;2022-10-31T21:19:27;100892.31;;;19.60;62.40
26839;BME280;40088;51.214;6.786;2022-10-31T21:29:27;100877.63;;;19.59;62.65
26839;BME280;40088;51.214;6.786;2022-10-31T21:39:27;100870.19;;;19.60;62.35
26839;BME280;40088;51.214;6.786;2022-10-31T21:49:28;100863.81;;;19.59;62.64
26839;BME280;40088;51.214;6.786;2022-10-31T21:59:29;100853.63;;;19.60;62.42
26839;BME280;40088;51.214;6.786;2022-10-31T22:09:29;100844.47;;;19.59;62.29
26839;BME280;40088;51.214;6.786;2022-10-31T22:19:29;100843.41;;;19.60;62.13
26839;BME280;40088;51.214;6.786;2022-10-31T22:29:30;100826.97;;;19.59;62.10
26839;BME280;40088;51.214;6.786;2022-10-31T22:39:30;100825.97;;;19.60;62.36
26839;BME280;40088;51.214;6.786;2022-10-31T22:49:30;100825.13;;;19.59;62.48
26839;BME280;40088;51.214;6.786;2022-10-31T22:59:31;100827.88;;;19.59;62.35
26839;BME280;40088;51.214;6.786;2022-10-31T23:09:31;100833.41;;;19.59;62.15
26839;BME280;40088;51.214;6.786;2022-10-31T23:19:31;100827.19;;;19.57;62.48
26839;BME280;40088;51.214;6.786;2022-10-31T23:29:51;100822.50;;;19.58;62.27
26839;BME280;40088;51.214;6.786;2022-10-31T23:39:52;100816.13;;;19.57;62.08
26839;BME280;40088;51.214;6.786;2022-10-31T23:49:52;100816.13;;;19.57;62.39
26839;BME280;40088;51.214;6.786;2022-10-31T23:59:52;100809.75;;;19.57;62.14
